sensor_id;sensor_type;location;lat;lon;timestamp;temperature;humidity
28175;SHT30;59417;44.788;10.334;2023-02-28T00:01:14;6.98;65.64
28175;SHT30;59417;44.788;10.334;2023-02-28T00:03:41;6.95;65.63
28175;SHT30;59417;44.788;10.334;2023-02-28T00:06:07;6.89;66.08
28175;SHT30;59417;44.788;10.334;2023-02-28T00:08:35;6.96;66.14
28175;SHT30;59417;44.788;10.334;2023-02-28T00:11:06;6.99;65.95
28175;SHT30;59417;44.788;10.334;2023-02-28T00:13:34;6.89;66.40
28175;SHT30;59417;44.788;10.334;2023-02-28T00:16:05;6.85;66.66
28175;SHT30;59417;44.788;10.334;2023-02-28T00:18:31;6.75;66.27
28175;SHT30;59417;44.788;10.334;2023-02-28T00:20:57;6.94;65.92
28175;SHT30;59417;44.788;10.334;2023-02-28T00:23:23;6.85;66.29
28175;SHT30;59417;44.788;10.334;2023-02-28T00:25:49;6.85;66.41
28175;SHT30;59417;44.788;10.334;2023-02-28T00:28:15;6.48;67.38
28175;SHT30;59417;44.788;10.334;2023-02-28T00:30:40;6.63;67.48
28175;SHT30;59417;44.788;10.334;2023-02-28T00:33:07;6.61;67.78
28175;SHT30;59417;44.788;10.334;2023-02-28T00:35:32;6.71;67.62
28175;SHT30;59417;44.788;10.334;2023-02-28T00:37:58;6.88;66.60
28175;SHT30;59417;44.788;10.334;2023-02-28T00:40:26;6.82;66.02
28175;SHT30;59417;44.788;10.334;2023-02-28T00:42:52;6.92;65.80
28175;SHT30;59417;44.788;10.334;2023-02-28T00:45:17;6.80;66.61
28175;SHT30;59417;44.788;10.334;2023-02-28T00:47:43;6.77;66.88
28175;SHT30;59417;44.788;10.334;2023-02-28T00:50:09;6.82;66.39
28175;SHT30;59417;44.788;10.334;2023-02-28T00:52:36;6.91;66.28
28175;SHT30;59417;44.788;10.334;2023-02-28T00:55:01;6.99;65.64
28175;SHT30;59417;44.788;10.334;2023-02-28T00:57:27;6.92;65.91
28175;SHT30;59417;44.788;10.334;2023-02-28T00:59:52;6.85;65.97
28175;SHT30;59417;44.788;10.334;2023-02-28T01:02:21;6.68;66.66
28175;SHT30;59417;44.788;10.334;2023-02-28T01:04:47;6.75;66.60
28175;SHT30;59417;44.788;10.334;2023-02-28T01:07:13;6.71;67.22
28175;SHT30;59417;44.788;10.334;2023-02-28T01:09:40;6.84;66.83
28175;SHT30;59417;44.788;10.334;2023-02-28T01:12:07;6.81;66.45
28175;SHT30;59417;44.788;10.334;2023-02-28T01:14:33;6.80;66.65
28175;SHT30;59417;44.788;10.334;2023-02-28T01:17:00;6.71;66.68
28175;SHT30;59417;44.788;10.334;2023-02-28T01:19:26;6.65;67.43
28175;SHT30;59417;44.788;10.334;2023-02-28T01:21:51;6.70;67.43
28175;SHT30;59417;44.788;10.334;2023-02-28T01:24:17;6.61;67.71
28175;SHT30;59417;44.788;10.334;2023-02-28T01:26:44;6.71;66.86
28175;SHT30;59417;44.788;10.334;2023-02-28T01:29:09;6.63;67.08
28175;SHT30;59417;44.788;10.334;2023-02-28T01:31:35;6.61;67.11
28175;SHT30;59417;44.788;10.334;2023-02-28T01:34:00;6.68;66.88
28175;SHT30;59417;44.788;10.334;2023-02-28T01:36:28;6.58;67.14
28175;SHT30;59417;44.788;10.334;2023-02-28T01:38:55;6.58;66.74
28175;SHT30;59417;44.788;10.334;2023-02-28T01:41:29;6.73;66.75
28175;SHT30;59417;44.788;10.334;2023-02-28T01:44:04;6.74;66.71
28175;SHT30;59417;44.788;10.334;2023-02-28T01:46:33;6.81;66.19
28175;SHT30;59417;44.788;10.334;2023-02-28T01:49:09;6.75;66.13
28175;SHT30;59417;44.788;10.334;2023-02-28T01:51:47;6.85;66.08
28175;SHT30;59417;44.788;10.334;2023-02-28T01:54:22;6.75;65.69
28175;SHT30;59417;44.788;10.334;2023-02-28T01:56:55;6.78;65.68
28175;SHT30;59417;44.788;10.334;2023-02-28T01:59:35;6.85;65.17
28175;SHT30;59417;44.788;10.334;2023-02-28T02:02:04;6.77;65.76
28175;SHT30;59417;44.788;10.334;2023-02-28T02:04:39;6.87;65.22
28175;SHT30;59417;44.788;10.334;2023-02-28T02:07:07;6.88;64.61
28175;SHT30;59417;44.788;10.334;2023-02-28T02:09:34;6.88;64.27
28175;SHT30;59417;44.788;10.334;2023-02-28T02:12:19;6.95;63.36
28175;SHT30;59417;44.788;10.334;2023-02-28T02:15:13;6.94;62.95
28175;SHT30;59417;44.788;10.334;2023-02-28T02:17:46;6.91;63.11
28175;SHT30;59417;44.788;10.334;2023-02-28T02:25:54;6.91;62.55
28175;SHT30;59417;44.788;10.334;2023-02-28T02:29:03;6.87;62.13
28175;SHT30;59417;44.788;10.334;2023-02-28T02:31:57;6.89;62.53
28175;SHT30;59417;44.788;10.334;2023-02-28T02:37:31;6.77;62.10
28175;SHT30;59417;44.788;10.334;2023-02-28T02:40:16;6.64;61.32
28175;SHT30;59417;44.788;10.334;2023-02-28T02:48:02;6.77;59.96
28175;SHT30;59417;44.788;10.334;2023-02-28T02:50:42;6.50;60.23
28175;SHT30;59417;44.788;10.334;2023-02-28T02:53:10;6.65;59.91
28175;SHT30;59417;44.788;10.334;2023-02-28T02:55:41;6.63;60.43
28175;SHT30;59417;44.788;10.334;2023-02-28T02:58:16;6.58;60.57
28175;SHT30;59417;44.788;10.334;2023-02-28T03:00:47;6.60;60.58
28175;SHT30;59417;44.788;10.334;2023-02-28T03:03:18;6.67;60.22
28175;SHT30;59417;44.788;10.334;2023-02-28T03:05:50;6.55;59.56
28175;SHT30;59417;44.788;10.334;2023-02-28T03:08:16;6.60;59.43
28175;SHT30;59417;44.788;10.334;2023-02-28T03:10:44;6.64;59.06
28175;SHT30;59417;44.788;10.334;2023-02-28T03:13:41;6.63;58.80
28175;SHT30;59417;44.788;10.334;2023-02-28T03:19:23;6.75;59.07
28175;SHT30;59417;44.788;10.334;2023-02-28T03:27:49;6.57;58.34
28175;SHT30;59417;44.788;10.334;2023-02-28T03:30:39;6.54;58.59
28175;SHT30;59417;44.788;10.334;2023-02-28T03:33:11;6.61;59.02
28175;SHT30;59417;44.788;10.334;2023-02-28T03:36:01;6.61;58.80
28175;SHT30;59417;44.788;10.334;2023-02-28T03:38:33;6.54;58.51
28175;SHT30;59417;44.788;10.334;2023-02-28T03:41:09;6.36;59.04
28175;SHT30;59417;44.788;10.334;2023-02-28T03:43:41;6.43;59.61
28175;SHT30;59417;44.788;10.334;2023-02-28T03:46:11;6.47;58.29
28175;SHT30;59417;44.788;10.334;2023-02-28T03:48:44;6.54;58.49
28175;SHT30;59417;44.788;10.334;2023-02-28T03:51:15;6.60;58.87
28175;SHT30;59417;44.788;10.334;2023-02-28T03:53:46;6.45;58.67
28175;SHT30;59417;44.788;10.334;2023-02-28T03:56:17;6.54;59.37
28175;SHT30;59417;44.788;10.334;2023-02-28T03:58:51;6.38;59.19
28175;SHT30;59417;44.788;10.334;2023-02-28T04:03:57;6.43;58.65
28175;SHT30;59417;44.788;10.334;2023-02-28T04:06:23;6.44;58.87
28175;SHT30;59417;44.788;10.334;2023-02-28T04:08:50;6.44;58.85
28175;SHT30;59417;44.788;10.334;2023-02-28T04:14:01;6.29;58.87
28175;SHT30;59417;44.788;10.334;2023-02-28T04:16:28;6.29;58.46
28175;SHT30;59417;44.788;10.334;2023-02-28T04:18:53;6.27;59.16
28175;SHT30;59417;44.788;10.334;2023-02-28T04:21:19;6.37;59.14
28175;SHT30;59417;44.788;10.334;2023-02-28T04:23:47;6.37;58.52
28175;SHT30;59417;44.788;10.334;2023-02-28T04:26:13;6.24;58.90
28175;SHT30;59417;44.788;10.334;2023-02-28T04:28:38;6.16;59.12
28175;SHT30;59417;44.788;10.334;2023-02-28T04:31:04;5.98;60.35
28175;SHT30;59417;44.788;10.334;2023-02-28T04:33:32;6.00;59.32
28175;SHT30;59417;44.788;10.334;2023-02-28T04:36:05;6.06;59.97
28175;SHT30;59417;44.788;10.334;2023-02-28T04:38:36;6.10;60.08
28175;SHT30;59417;44.788;10.334;2023-02-28T04:41:03;6.17;59.87
28175;SHT30;59417;44.788;10.334;2023-02-28T04:43:29;6.13;59.42
28175;SHT30;59417;44.788;10.334;2023-02-28T04:45:56;6.30;58.91
28175;SHT30;59417;44.788;10.334;2023-02-28T04:48:23;6.34;58.59
28175;SHT30;59417;44.788;10.334;2023-02-28T04:50:50;6.40;58.63
28175;SHT30;59417;44.788;10.334;2023-02-28T04:53:16;6.21;58.65
28175;SHT30;59417;44.788;10.334;2023-02-28T04:55:41;6.07;59.35
28175;SHT30;59417;44.788;10.334;2023-02-28T04:58:07;6.21;59.51
28175;SHT30;59417;44.788;10.334;2023-02-28T05:00:32;6.10;59.79
28175;SHT30;59417;44.788;10.334;2023-02-28T05:02:58;6.21;59.02
28175;SHT30;59417;44.788;10.334;2023-02-28T05:05:24;6.27;59.19
28175;SHT30;59417;44.788;10.334;2023-02-28T05:07:49;6.23;59.81
28175;SHT30;59417;44.788;10.334;2023-02-28T05:10:15;6.13;59.66
28175;SHT30;59417;44.788;10.334;2023-02-28T05:12:43;6.26;59.40
28175;SHT30;59417;44.788;10.334;2023-02-28T05:15:12;6.10;60.13
28175;SHT30;59417;44.788;10.334;2023-02-28T05:17:39;6.12;59.94
28175;SHT30;59417;44.788;10.334;2023-02-28T05:20:05;6.17;59.97
28175;SHT30;59417;44.788;10.334;2023-02-28T05:22:31;6.14;59.73
28175;SHT30;59417;44.788;10.334;2023-02-28T05:24:57;6.09;59.86
28175;SHT30;59417;44.788;10.334;2023-02-28T05:27:23;6.09;59.08
28175;SHT30;59417;44.788;10.334;2023-02-28T05:29:48;6.17;59.61
28175;SHT30;59417;44.788;10.334;2023-02-28T05:32:14;6.26;59.04
28175;SHT30;59417;44.788;10.334;2023-02-28T05:34:41;6.12;59.39
28175;SHT30;59417;44.788;10.334;2023-02-28T05:37:12;6.09;59.59
28175;SHT30;59417;44.788;10.334;2023-02-28T05:39:38;6.16;59.20
28175;SHT30;59417;44.788;10.334;2023-02-28T05:42:04;6.24;58.46
28175;SHT30;59417;44.788;10.334;2023-02-28T05:44:32;6.20;59.01
28175;SHT30;59417;44.788;10.334;2023-02-28T05:46:57;6.30;59.68
28175;SHT30;59417;44.788;10.334;2023-02-28T05:49:23;6.21;59.47
28175;SHT30;59417;44.788;10.334;2023-02-28T05:51:49;6.24;59.68
28175;SHT30;59417;44.788;10.334;2023-02-28T05:54:14;6.34;58.67
28175;SHT30;59417;44.788;10.334;2023-02-28T05:56:40;6.34;58.49
28175;SHT30;59417;44.788;10.334;2023-02-28T05:59:09;6.43;58.25
28175;SHT30;59417;44.788;10.334;2023-02-28T06:01:38;6.36;59.47
28175;SHT30;59417;44.788;10.334;2023-02-28T06:04:09;6.21;60.30
28175;SHT30;59417;44.788;10.334;2023-02-28T06:06:36;6.23;61.11
28175;SHT30;59417;44.788;10.334;2023-02-28T06:09:06;6.21;60.47
28175;SHT30;59417;44.788;10.334;2023-02-28T06:11:32;6.30;61.30
28175;SHT30;59417;44.788;10.334;2023-02-28T06:14:06;6.20;62.73
28175;SHT30;59417;44.788;10.334;2023-02-28T06:16:33;6.14;63.58
28175;SHT30;59417;44.788;10.334;2023-02-28T06:19:08;5.99;64.53
28175;SHT30;59417;44.788;10.334;2023-02-28T06:21:34;5.92;65.25
28175;SHT30;59417;44.788;10.334;2023-02-28T06:24:00;5.98;66.30
28175;SHT30;59417;44.788;10.334;2023-02-28T06:26:29;5.98;66.90
28175;SHT30;59417;44.788;10.334;2023-02-28T06:28:54;5.96;67.06
28175;SHT30;59417;44.788;10.334;2023-02-28T06:31:23;6.00;67.10
28175;SHT30;59417;44.788;10.334;2023-02-28T06:33:51;5.92;67.57
28175;SHT30;59417;44.788;10.334;2023-02-28T06:36:17;5.86;67.68
28175;SHT30;59417;44.788;10.334;2023-02-28T06:38:44;5.78;68.41
28175;SHT30;59417;44.788;10.334;2023-02-28T06:41:10;5.88;68.38
28175;SHT30;59417;44.788;10.334;2023-02-28T06:43:39;5.86;67.88
28175;SHT30;59417;44.788;10.334;2023-02-28T06:46:07;5.88;68.22
28175;SHT30;59417;44.788;10.334;2023-02-28T06:48:34;5.83;68.24
28175;SHT30;59417;44.788;10.334;2023-02-28T06:51:04;5.81;68.06
28175;SHT30;59417;44.788;10.334;2023-02-28T06:53:30;5.77;68.74
28175;SHT30;59417;44.788;10.334;2023-02-28T06:55:56;5.74;68.10
28175;SHT30;59417;44.788;10.334;2023-02-28T06:58:22;5.88;68.11
28175;SHT30;59417;44.788;10.334;2023-02-28T07:00:51;5.90;68.13
28175;SHT30;59417;44.788;10.334;2023-02-28T07:03:17;5.96;67.98
28175;SHT30;59417;44.788;10.334;2023-02-28T07:05:44;5.98;67.91
28175;SHT30;59417;44.788;10.334;2023-02-28T07:08:10;6.00;68.25
28175;SHT30;59417;44.788;10.334;2023-02-28T07:10:37;5.96;68.05
28175;SHT30;59417;44.788;10.334;2023-02-28T07:13:04;5.92;68.33
28175;SHT30;59417;44.788;10.334;2023-02-28T07:15:30;5.95;68.30
28175;SHT30;59417;44.788;10.334;2023-02-28T07:17:56;5.82;67.70
28175;SHT30;59417;44.788;10.334;2023-02-28T07:20:22;5.51;67.93
28175;SHT30;59417;44.788;10.334;2023-02-28T07:22:48;5.83;67.31
28175;SHT30;59417;44.788;10.334;2023-02-28T07:25:21;5.88;67.00
28175;SHT30;59417;44.788;10.334;2023-02-28T07:27:47;5.95;66.56
28175;SHT30;59417;44.788;10.334;2023-02-28T07:30:12;5.90;66.46
28175;SHT30;59417;44.788;10.334;2023-02-28T07:32:38;6.00;65.85
28175;SHT30;59417;44.788;10.334;2023-02-28T07:35:04;6.00;65.41
28175;SHT30;59417;44.788;10.334;2023-02-28T07:37:30;6.16;65.27
28175;SHT30;59417;44.788;10.334;2023-02-28T07:39:56;6.14;64.94
28175;SHT30;59417;44.788;10.334;2023-02-28T07:42:22;6.06;65.19
28175;SHT30;59417;44.788;10.334;2023-02-28T07:44:50;6.00;64.78
28175;SHT30;59417;44.788;10.334;2023-02-28T07:47:17;6.07;64.54
28175;SHT30;59417;44.788;10.334;2023-02-28T07:49:42;6.10;64.41
28175;SHT30;59417;44.788;10.334;2023-02-28T07:52:08;5.98;64.76
28175;SHT30;59417;44.788;10.334;2023-02-28T07:54:34;6.06;65.34
28175;SHT30;59417;44.788;10.334;2023-02-28T07:57:06;6.12;65.49
28175;SHT30;59417;44.788;10.334;2023-02-28T07:59:31;6.23;65.73
28175;SHT30;59417;44.788;10.334;2023-02-28T08:01:57;6.20;65.39
28175;SHT30;59417;44.788;10.334;2023-02-28T08:04:23;6.20;65.24
28175;SHT30;59417;44.788;10.334;2023-02-28T08:06:49;6.26;65.77
28175;SHT30;59417;44.788;10.334;2023-02-28T08:09:17;6.23;66.41
28175;SHT30;59417;44.788;10.334;2023-02-28T08:11:43;6.17;66.41
28175;SHT30;59417;44.788;10.334;2023-02-28T08:14:08;6.06;66.96
28175;SHT30;59417;44.788;10.334;2023-02-28T08:16:34;6.13;67.13
28175;SHT30;59417;44.788;10.334;2023-02-28T08:18:59;6.21;66.42
28175;SHT30;59417;44.788;10.334;2023-02-28T08:21:25;6.19;66.89
28175;SHT30;59417;44.788;10.334;2023-02-28T08:23:51;6.29;66.89
28175;SHT30;59417;44.788;10.334;2023-02-28T08:26:17;6.20;67.27
28175;SHT30;59417;44.788;10.334;2023-02-28T08:28:44;6.17;67.41
28175;SHT30;59417;44.788;10.334;2023-02-28T08:31:11;6.30;67.53
28175;SHT30;59417;44.788;10.334;2023-02-28T08:33:38;6.21;67.00
28175;SHT30;59417;44.788;10.334;2023-02-28T08:36:05;6.17;66.86
28175;SHT30;59417;44.788;10.334;2023-02-28T08:38:31;6.13;67.32
28175;SHT30;59417;44.788;10.334;2023-02-28T08:40:59;6.20;67.47
28175;SHT30;59417;44.788;10.334;2023-02-28T08:43:25;6.29;67.64
28175;SHT30;59417;44.788;10.334;2023-02-28T08:45:52;6.30;68.03
28175;SHT30;59417;44.788;10.334;2023-02-28T08:48:18;6.06;68.77
28175;SHT30;59417;44.788;10.334;2023-02-28T08:50:44;5.93;68.80
28175;SHT30;59417;44.788;10.334;2023-02-28T08:53:13;6.02;67.71
28175;SHT30;59417;44.788;10.334;2023-02-28T08:55:39;6.09;67.99
28175;SHT30;59417;44.788;10.334;2023-02-28T08:58:05;6.14;67.91
28175;SHT30;59417;44.788;10.334;2023-02-28T09:00:30;6.09;67.70
28175;SHT30;59417;44.788;10.334;2023-02-28T09:02:56;6.20;67.14
28175;SHT30;59417;44.788;10.334;2023-02-28T09:05:22;6.17;67.10
28175;SHT30;59417;44.788;10.334;2023-02-28T09:07:49;6.30;67.85
28175;SHT30;59417;44.788;10.334;2023-02-28T09:10:15;6.37;67.24
28175;SHT30;59417;44.788;10.334;2023-02-28T09:12:41;6.44;66.51
28175;SHT30;59417;44.788;10.334;2023-02-28T09:15:07;6.36;65.98
28175;SHT30;59417;44.788;10.334;2023-02-28T09:17:33;6.21;66.24
28175;SHT30;59417;44.788;10.334;2023-02-28T09:19:58;6.29;66.83
28175;SHT30;59417;44.788;10.334;2023-02-28T09:22:24;6.34;66.99
28175;SHT30;59417;44.788;10.334;2023-02-28T09:24:50;6.30;67.66
28175;SHT30;59417;44.788;10.334;2023-02-28T09:27:16;6.38;67.50
28175;SHT30;59417;44.788;10.334;2023-02-28T09:29:41;6.57;65.84
28175;SHT30;59417;44.788;10.334;2023-02-28T09:32:07;6.57;66.13
28175;SHT30;59417;44.788;10.334;2023-02-28T09:34:33;6.58;64.92
28175;SHT30;59417;44.788;10.334;2023-02-28T09:36:58;6.64;63.38
28175;SHT30;59417;44.788;10.334;2023-02-28T09:39:24;6.44;63.53
28175;SHT30;59417;44.788;10.334;2023-02-28T09:41:52;6.36;64.68
28175;SHT30;59417;44.788;10.334;2023-02-28T09:46:55;6.60;65.61
28175;SHT30;59417;44.788;10.334;2023-02-28T09:49:26;6.75;63.93
28175;SHT30;59417;44.788;10.334;2023-02-28T09:52:08;6.98;63.65
28175;SHT30;59417;44.788;10.334;2023-02-28T09:54:35;6.84;64.79
28175;SHT30;59417;44.788;10.334;2023-02-28T09:59:59;6.95;63.29
28175;SHT30;59417;44.788;10.334;2023-02-28T10:08:23;6.91;63.21
28175;SHT30;59417;44.788;10.334;2023-02-28T10:10:55;6.71;63.80
28175;SHT30;59417;44.788;10.334;2023-02-28T10:13:39;6.44;65.48
28175;SHT30;59417;44.788;10.334;2023-02-28T10:16:14;6.48;66.19
28175;SHT30;59417;44.788;10.334;2023-02-28T10:18:52;6.65;64.97
28175;SHT30;59417;44.788;10.334;2023-02-28T10:21:25;6.63;64.63
28175;SHT30;59417;44.788;10.334;2023-02-28T10:24:11;6.87;64.85
28175;SHT30;59417;44.788;10.334;2023-02-28T10:26:41;6.96;63.44
28175;SHT30;59417;44.788;10.334;2023-02-28T10:29:09;6.89;63.82
28175;SHT30;59417;44.788;10.334;2023-02-28T10:31:35;6.81;64.87
28175;SHT30;59417;44.788;10.334;2023-02-28T10:34:00;7.05;64.79
28175;SHT30;59417;44.788;10.334;2023-02-28T10:36:26;7.09;64.40
28175;SHT30;59417;44.788;10.334;2023-02-28T10:38:53;7.15;63.48
28175;SHT30;59417;44.788;10.334;2023-02-28T10:41:30;7.26;63.09
28175;SHT30;59417;44.788;10.334;2023-02-28T10:44:29;7.46;62.52
28175;SHT30;59417;44.788;10.334;2023-02-28T10:46:55;7.42;62.75
28175;SHT30;59417;44.788;10.334;2023-02-28T10:49:26;7.14;61.94
28175;SHT30;59417;44.788;10.334;2023-02-28T10:51:56;7.22;62.62
28175;SHT30;59417;44.788;10.334;2023-02-28T10:54:31;7.27;62.64
28175;SHT30;59417;44.788;10.334;2023-02-28T10:57:20;7.50;62.71
28175;SHT30;59417;44.788;10.334;2023-02-28T10:59:51;7.68;61.41
28175;SHT30;59417;44.788;10.334;2023-02-28T11:02:35;7.77;60.02
28175;SHT30;59417;44.788;10.334;2023-02-28T11:05:14;7.80;59.72
28175;SHT30;59417;44.788;10.334;2023-02-28T11:07:55;7.76;59.37
28175;SHT30;59417;44.788;10.334;2023-02-28T11:10:25;7.68;60.52
28175;SHT30;59417;44.788;10.334;2023-02-28T11:12:55;7.76;60.45
28175;SHT30;59417;44.788;10.334;2023-02-28T11:15:24;7.86;60.13
28175;SHT30;59417;44.788;10.334;2023-02-28T11:18:23;7.94;57.57
28175;SHT30;59417;44.788;10.334;2023-02-28T11:20:52;7.59;56.50
28175;SHT30;59417;44.788;10.334;2023-02-28T11:23:24;7.56;58.11
28175;SHT30;59417;44.788;10.334;2023-02-28T11:25:52;7.74;58.06
28175;SHT30;59417;44.788;10.334;2023-02-28T11:33:54;7.68;59.52
28175;SHT30;59417;44.788;10.334;2023-02-28T11:36:22;7.84;59.14
28175;SHT30;59417;44.788;10.334;2023-02-28T11:38:51;7.98;59.60
28175;SHT30;59417;44.788;10.334;2023-02-28T11:47:00;8.24;58.33
28175;SHT30;59417;44.788;10.334;2023-02-28T11:55:24;8.12;57.34
28175;SHT30;59417;44.788;10.334;2023-02-28T11:58:07;7.87;58.34
28175;SHT30;59417;44.788;10.334;2023-02-28T12:06:45;7.97;61.01
28175;SHT30;59417;44.788;10.334;2023-02-28T12:09:28;8.02;59.81
28175;SHT30;59417;44.788;10.334;2023-02-28T12:11:59;7.81;60.71
28175;SHT30;59417;44.788;10.334;2023-02-28T12:15:04;8.08;60.05
28175;SHT30;59417;44.788;10.334;2023-02-28T12:18:05;8.04;59.20
28175;SHT30;59417;44.788;10.334;2023-02-28T12:23:25;8.17;58.96
28175;SHT30;59417;44.788;10.334;2023-02-28T12:26:02;8.10;59.73
28175;SHT30;59417;44.788;10.334;2023-02-28T12:28:39;8.02;58.73
28175;SHT30;59417;44.788;10.334;2023-02-28T12:33:43;8.28;57.85
28175;SHT30;59417;44.788;10.334;2023-02-28T12:36:15;8.22;58.47
28175;SHT30;59417;44.788;10.334;2023-02-28T12:38:53;8.20;59.95
28175;SHT30;59417;44.788;10.334;2023-02-28T12:41:25;8.32;59.94
28175;SHT30;59417;44.788;10.334;2023-02-28T12:44:02;8.33;59.07
28175;SHT30;59417;44.788;10.334;2023-02-28T12:46:38;8.50;57.21
28175;SHT30;59417;44.788;10.334;2023-02-28T12:49:10;8.43;58.67
28175;SHT30;59417;44.788;10.334;2023-02-28T12:51:40;8.64;58.53
28175;SHT30;59417;44.788;10.334;2023-02-28T12:59:49;9.13;56.26
28175;SHT30;59417;44.788;10.334;2023-02-28T13:02:30;8.99;54.96
28175;SHT30;59417;44.788;10.334;2023-02-28T13:10:42;9.04;54.79
28175;SHT30;59417;44.788;10.334;2023-02-28T13:13:18;9.15;55.74
28175;SHT30;59417;44.788;10.334;2023-02-28T13:18:33;9.48;56.34
28175;SHT30;59417;44.788;10.334;2023-02-28T13:21:01;9.55;55.46
28175;SHT30;59417;44.788;10.334;2023-02-28T13:23:59;9.61;54.92
28175;SHT30;59417;44.788;10.334;2023-02-28T13:39:51;9.61;55.54
28175;SHT30;59417;44.788;10.334;2023-02-28T13:45:20;9.13;57.67
28175;SHT30;59417;44.788;10.334;2023-02-28T13:47:59;9.24;57.51
28175;SHT30;59417;44.788;10.334;2023-02-28T14:04:01;8.99;58.36
28175;SHT30;59417;44.788;10.334;2023-02-28T14:06:36;8.92;58.70
28175;SHT30;59417;44.788;10.334;2023-02-28T14:11:45;8.96;59.28
28175;SHT30;59417;44.788;10.334;2023-02-28T14:17:07;9.00;58.76
28175;SHT30;59417;44.788;10.334;2023-02-28T14:19:36;8.84;58.90
28175;SHT30;59417;44.788;10.334;2023-02-28T14:27:05;8.83;59.03
28175;SHT30;59417;44.788;10.334;2023-02-28T14:36:02;9.06;58.63
28175;SHT30;59417;44.788;10.334;2023-02-28T14:38:54;9.06;59.28
28175;SHT30;59417;44.788;10.334;2023-02-28T14:41:34;8.99;58.52
28175;SHT30;59417;44.788;10.334;2023-02-28T14:44:20;8.87;58.95
28175;SHT30;59417;44.788;10.334;2023-02-28T14:46:52;8.94;59.43
28175;SHT30;59417;44.788;10.334;2023-02-28T14:49:37;8.93;58.81
28175;SHT30;59417;44.788;10.334;2023-02-28T14:52:22;8.97;58.55
28175;SHT30;59417;44.788;10.334;2023-02-28T14:54:57;9.10;57.96
28175;SHT30;59417;44.788;10.334;2023-02-28T14:57:27;8.97;58.04
28175;SHT30;59417;44.788;10.334;2023-02-28T15:02:36;8.97;58.63
28175;SHT30;59417;44.788;10.334;2023-02-28T15:07:48;9.06;58.58
28175;SHT30;59417;44.788;10.334;2023-02-28T15:11:34;9.11;58.79
28175;SHT30;59417;44.788;10.334;2023-02-28T15:14:06;9.06;58.31
28175;SHT30;59417;44.788;10.334;2023-02-28T15:16:37;9.10;57.98
28175;SHT30;59417;44.788;10.334;2023-02-28T15:19:22;9.03;58.51
28175;SHT30;59417;44.788;10.334;2023-02-28T15:21:53;8.96;59.24
28175;SHT30;59417;44.788;10.334;2023-02-28T15:24:41;9.03;60.00
28175;SHT30;59417;44.788;10.334;2023-02-28T15:27:13;9.10;60.01
28175;SHT30;59417;44.788;10.334;2023-02-28T15:29:53;9.10;59.86
28175;SHT30;59417;44.788;10.334;2023-02-28T15:32:27;8.94;60.08
28175;SHT30;59417;44.788;10.334;2023-02-28T15:34:54;8.62;60.27
28175;SHT30;59417;44.788;10.334;2023-02-28T15:39:53;8.43;60.72
28175;SHT30;59417;44.788;10.334;2023-02-28T15:42:22;8.38;61.03
28175;SHT30;59417;44.788;10.334;2023-02-28T15:44:48;8.39;61.00
28175;SHT30;59417;44.788;10.334;2023-02-28T15:47:23;8.38;61.31
28175;SHT30;59417;44.788;10.334;2023-02-28T15:49:52;8.28;61.69
28175;SHT30;59417;44.788;10.334;2023-02-28T15:52:28;8.35;61.46
28175;SHT30;59417;44.788;10.334;2023-02-28T15:55:17;8.46;60.63
28175;SHT30;59417;44.788;10.334;2023-02-28T15:57:44;8.43;60.02
28175;SHT30;59417;44.788;10.334;2023-02-28T16:00:14;8.35;60.27
28175;SHT30;59417;44.788;10.334;2023-02-28T16:02:40;8.33;60.42
28175;SHT30;59417;44.788;10.334;2023-02-28T16:07:32;8.52;59.43
28175;SHT30;59417;44.788;10.334;2023-02-28T16:09:58;8.43;60.94
28175;SHT30;59417;44.788;10.334;2023-02-28T16:12:29;8.28;61.57
28175;SHT30;59417;44.788;10.334;2023-02-28T16:14:58;8.53;59.93
28175;SHT30;59417;44.788;10.334;2023-02-28T16:17:29;8.38;60.23
28175;SHT30;59417;44.788;10.334;2023-02-28T16:19:56;8.33;59.82
28175;SHT30;59417;44.788;10.334;2023-02-28T16:22:22;8.24;60.15
28175;SHT30;59417;44.788;10.334;2023-02-28T16:24:48;8.29;60.27
28175;SHT30;59417;44.788;10.334;2023-02-28T16:27:28;8.35;60.43
28175;SHT30;59417;44.788;10.334;2023-02-28T16:29:55;8.28;60.95
28175;SHT30;59417;44.788;10.334;2023-02-28T16:32:23;8.28;60.56
28175;SHT30;59417;44.788;10.334;2023-02-28T16:34:49;8.42;60.78
28175;SHT30;59417;44.788;10.334;2023-02-28T16:37:16;8.31;60.80
28175;SHT30;59417;44.788;10.334;2023-02-28T16:39:44;8.35;60.76
28175;SHT30;59417;44.788;10.334;2023-02-28T16:42:30;8.18;61.41
28175;SHT30;59417;44.788;10.334;2023-02-28T16:44:56;8.32;60.83
28175;SHT30;59417;44.788;10.334;2023-02-28T16:47:24;8.25;61.02
28175;SHT30;59417;44.788;10.334;2023-02-28T16:49:52;8.29;60.98
28175;SHT30;59417;44.788;10.334;2023-02-28T16:52:18;8.25;61.81
28175;SHT30;59417;44.788;10.334;2023-02-28T16:54:43;8.17;61.65
28175;SHT30;59417;44.788;10.334;2023-02-28T16:57:29;8.12;61.79
28175;SHT30;59417;44.788;10.334;2023-02-28T16:59:55;7.98;62.18
28175;SHT30;59417;44.788;10.334;2023-02-28T17:02:21;7.86;62.27
28175;SHT30;59417;44.788;10.334;2023-02-28T17:04:46;7.80;62.77
28175;SHT30;59417;44.788;10.334;2023-02-28T17:07:14;7.78;62.59
28175;SHT30;59417;44.788;10.334;2023-02-28T17:09:41;7.80;63.15
28175;SHT30;59417;44.788;10.334;2023-02-28T17:12:07;7.78;63.40
28175;SHT30;59417;44.788;10.334;2023-02-28T17:14:34;7.87;63.49
28175;SHT30;59417;44.788;10.334;2023-02-28T17:16:59;7.95;62.31
28175;SHT30;59417;44.788;10.334;2023-02-28T17:19:25;8.04;62.43
28175;SHT30;59417;44.788;10.334;2023-02-28T17:21:51;7.94;62.81
28175;SHT30;59417;44.788;10.334;2023-02-28T17:24:16;8.00;62.18
28175;SHT30;59417;44.788;10.334;2023-02-28T17:26:42;8.05;62.29
28175;SHT30;59417;44.788;10.334;2023-02-28T17:29:18;8.17;63.42
28175;SHT30;59417;44.788;10.334;2023-02-28T17:31:44;8.10;62.96
28175;SHT30;59417;44.788;10.334;2023-02-28T17:34:11;8.11;63.13
28175;SHT30;59417;44.788;10.334;2023-02-28T17:36:44;8.14;62.72
28175;SHT30;59417;44.788;10.334;2023-02-28T17:39:11;8.17;62.40
28175;SHT30;59417;44.788;10.334;2023-02-28T17:41:42;8.10;62.33
28175;SHT30;59417;44.788;10.334;2023-02-28T17:44:09;8.10;62.94
28175;SHT30;59417;44.788;10.334;2023-02-28T17:46:34;8.11;62.42
28175;SHT30;59417;44.788;10.334;2023-02-28T17:49:01;8.10;62.60
28175;SHT30;59417;44.788;10.334;2023-02-28T17:51:26;8.04;63.07
28175;SHT30;59417;44.788;10.334;2023-02-28T17:53:52;8.02;62.80
28175;SHT30;59417;44.788;10.334;2023-02-28T17:56:23;7.98;63.04
28175;SHT30;59417;44.788;10.334;2023-02-28T17:58:51;7.97;63.31
28175;SHT30;59417;44.788;10.334;2023-02-28T18:01:18;8.08;63.07
28175;SHT30;59417;44.788;10.334;2023-02-28T18:03:45;8.05;63.82
28175;SHT30;59417;44.788;10.334;2023-02-28T18:06:24;8.05;64.48
28175;SHT30;59417;44.788;10.334;2023-02-28T18:08:51;8.10;63.99